sensor_id;sensor_type;location;lat;lon;timestamp;pressure;altitude;pressure_sealevel;temperature
15680;BMP180;15488;48.114;11.532;2024-02-15T00:01:05;95844.00;;;17.60
15680;BMP180;15488;48.114;11.532;2024-02-15T00:03:32;95837.00;;;17.60
15680;BMP180;15488;48.114;11.532;2024-02-15T00:06:02;95844.00;;;17.60
15680;BMP180;15488;48.114;11.532;2024-02-15T00:08:30;95838.00;;;17.60
15680;BMP180;15488;48.114;11.532;2024-02-15T00:10:59;95840.00;;;17.60
15680;BMP180;15488;48.114;11.532;2024-02-15T00:13:26;95839.00;;;17.60
15680;BMP180;15488;48.114;11.532;2024-02-15T00:15:54;95836.00;;;17.60
15680;BMP180;15488;48.114;11.532;2024-02-15T00:18:21;95834.00;;;17.70
15680;BMP180;15488;48.114;11.532;2024-02-15T00:20:49;95832.00;;;17.60
15680;BMP180;15488;48.114;11.532;2024-02-15T00:23:18;95836.00;;;17.50
15680;BMP180;15488;48.114;11.532;2024-02-15T00:25:46;95833.00;;;17.50
15680;BMP180;15488;48.114;11.532;2024-02-15T00:28:13;95832.00;;;17.50
15680;BMP180;15488;48.114;11.532;2024-02-15T00:30:41;95837.00;;;17.50
15680;BMP180;15488;48.114;11.532;2024-02-15T00:33:08;95832.00;;;17.50
15680;BMP180;15488;48.114;11.532;2024-02-15T00:35:36;95839.00;;;17.50
15680;BMP180;15488;48.114;11.532;2024-02-15T00:38:04;95832.00;;;17.40
15680;BMP180;15488;48.114;11.532;2024-02-15T00:40:34;95833.00;;;17.50
15680;BMP180;15488;48.114;11.532;2024-02-15T00:43:02;95830.00;;;17.50
15680;BMP180;15488;48.114;11.532;2024-02-15T00:45:30;95820.00;;;17.50
15680;BMP180;15488;48.114;11.532;2024-02-15T00:47:58;95828.00;;;17.40
15680;BMP180;15488;48.114;11.532;2024-02-15T00:50:25;95819.00;;;17.40
15680;BMP180;15488;48.114;11.532;2024-02-15T00:52:53;95820.00;;;17.40
15680;BMP180;15488;48.114;11.532;2024-02-15T00:55:21;95829.00;;;17.40
15680;BMP180;15488;48.114;11.532;2024-02-15T00:57:49;95828.00;;;17.40
15680;BMP180;15488;48.114;11.532;2024-02-15T01:00:17;95827.00;;;17.30
15680;BMP180;15488;48.114;11.532;2024-02-15T01:02:45;95824.00;;;17.30
15680;BMP180;15488;48.114;11.532;2024-02-15T01:05:13;95838.00;;;17.30
15680;BMP180;15488;48.114;11.532;2024-02-15T01:07:41;95834.00;;;17.30
15680;BMP180;15488;48.114;11.532;2024-02-15T01:10:09;95828.00;;;17.30
15680;BMP180;15488;48.114;11.532;2024-02-15T01:12:37;95827.00;;;17.30
15680;BMP180;15488;48.114;11.532;2024-02-15T01:15:06;95827.00;;;17.30
15680;BMP180;15488;48.114;11.532;2024-02-15T01:17:34;95830.00;;;17.30
15680;BMP180;15488;48.114;11.532;2024-02-15T01:20:02;95826.00;;;17.30
15680;BMP180;15488;48.114;11.532;2024-02-15T01:22:30;95824.00;;;17.30
15680;BMP180;15488;48.114;11.532;2024-02-15T01:24:57;95820.00;;;17.30
15680;BMP180;15488;48.114;11.532;2024-02-15T01:27:25;95826.00;;;17.30
15680;BMP180;15488;48.114;11.532;2024-02-15T01:29:56;95823.00;;;17.30
15680;BMP180;15488;48.114;11.532;2024-02-15T01:32:25;95828.00;;;17.30
15680;BMP180;15488;48.114;11.532;2024-02-15T01:34:53;95833.00;;;17.30
15680;BMP180;15488;48.114;11.532;2024-02-15T01:37:21;95828.00;;;17.30
15680;BMP180;15488;48.114;11.532;2024-02-15T01:39:48;95828.00;;;17.40
15680;BMP180;15488;48.114;11.532;2024-02-15T01:42:16;95826.00;;;17.00
15680;BMP180;15488;48.114;11.532;2024-02-15T01:44:44;95823.00;;;17.50
15680;BMP180;15488;48.114;11.532;2024-02-15T01:47:13;95812.00;;;17.40
15680;BMP180;15488;48.114;11.532;2024-02-15T01:49:43;95811.00;;;17.30
15680;BMP180;15488;48.114;11.532;2024-02-15T01:52:10;95818.00;;;17.40
15680;BMP180;15488;48.114;11.532;2024-02-15T01:54:39;95810.00;;;17.30
15680;BMP180;15488;48.114;11.532;2024-02-15T01:57:08;95813.00;;;17.30
15680;BMP180;15488;48.114;11.532;2024-02-15T01:59:36;95818.00;;;17.30
15680;BMP180;15488;48.114;11.532;2024-02-15T02:02:05;95810.00;;;17.30
15680;BMP180;15488;48.114;11.532;2024-02-15T02:04:36;95811.00;;;17.30
15680;BMP180;15488;48.114;11.532;2024-02-15T02:07:05;95812.00;;;17.40
15680;BMP180;15488;48.114;11.532;2024-02-15T02:09:33;95810.00;;;17.30
15680;BMP180;15488;48.114;11.532;2024-02-15T02:12:01;95804.00;;;17.30
15680;BMP180;15488;48.114;11.532;2024-02-15T02:14:30;95803.00;;;17.30
15680;BMP180;15488;48.114;11.532;2024-02-15T02:17:11;95803.00;;;17.20
15680;BMP180;15488;48.114;11.532;2024-02-15T02:19:39;95799.00;;;17.30
15680;BMP180;15488;48.114;11.532;2024-02-15T02:22:09;95805.00;;;17.20
15680;BMP180;15488;48.114;11.532;2024-02-15T02:24:44;95802.00;;;17.20
15680;BMP180;15488;48.114;11.532;2024-02-15T02:27:17;95802.00;;;17.20
15680;BMP180;15488;48.114;11.532;2024-02-15T02:29:45;95805.00;;;17.20
15680;BMP180;15488;48.114;11.532;2024-02-15T02:32:13;95808.00;;;17.20
15680;BMP180;15488;48.114;11.532;2024-02-15T02:34:40;95798.00;;;17.20
15680;BMP180;15488;48.114;11.532;2024-02-15T02:37:08;95795.00;;;17.20
15680;BMP180;15488;48.114;11.532;2024-02-15T02:39:35;95795.00;;;17.20
15680;BMP180;15488;48.114;11.532;2024-02-15T02:42:03;95798.00;;;17.10
15680;BMP180;15488;48.114;11.532;2024-02-15T02:44:32;95794.00;;;17.10
15680;BMP180;15488;48.114;11.532;2024-02-15T02:47:00;95792.00;;;17.10
15680;BMP180;15488;48.114;11.532;2024-02-15T02:49:28;95799.00;;;17.10
15680;BMP180;15488;48.114;11.532;2024-02-15T02:51:55;95794.00;;;17.10
15680;BMP180;15488;48.114;11.532;2024-02-15T02:54:23;95789.00;;;17.10
15680;BMP180;15488;48.114;11.532;2024-02-15T02:56:51;95781.00;;;17.10
15680;BMP180;15488;48.114;11.532;2024-02-15T02:59:18;95781.00;;;17.10
15680;BMP180;15488;48.114;11.532;2024-02-15T03:01:47;95785.00;;;17.10
15680;BMP180;15488;48.114;11.532;2024-02-15T03:04:15;95790.00;;;17.20
15680;BMP180;15488;48.114;11.532;2024-02-15T03:06:43;95789.00;;;17.10
15680;BMP180;15488;48.114;11.532;2024-02-15T03:09:11;95785.00;;;17.20
15680;BMP180;15488;48.114;11.532;2024-02-15T03:11:40;95789.00;;;17.20
15680;BMP180;15488;48.114;11.532;2024-02-15T03:14:08;95788.00;;;17.20
15680;BMP180;15488;48.114;11.532;2024-02-15T03:16:37;95787.00;;;17.20
15680;BMP180;15488;48.114;11.532;2024-02-15T03:19:06;95786.00;;;17.10
15680;BMP180;15488;48.114;11.532;2024-02-15T03:21:37;95787.00;;;17.20
15680;BMP180;15488;48.114;11.532;2024-02-15T03:24:05;95783.00;;;17.10
15680;BMP180;15488;48.114;11.532;2024-02-15T03:26:33;95793.00;;;17.10
15680;BMP180;15488;48.114;11.532;2024-02-15T03:29:03;95791.00;;;17.10
15680;BMP180;15488;48.114;11.532;2024-02-15T03:31:30;95792.00;;;17.10
15680;BMP180;15488;48.114;11.532;2024-02-15T03:33:58;95793.00;;;17.10
15680;BMP180;15488;48.114;11.532;2024-02-15T03:36:28;95783.00;;;17.10
15680;BMP180;15488;48.114;11.532;2024-02-15T03:38:55;95785.00;;;17.30
15680;BMP180;15488;48.114;11.532;2024-02-15T03:41:23;95791.00;;;17.30
15680;BMP180;15488;48.114;11.532;2024-02-15T03:43:52;95794.00;;;17.30
15680;BMP180;15488;48.114;11.532;2024-02-15T03:46:19;95789.00;;;17.20
15680;BMP180;15488;48.114;11.532;2024-02-15T03:48:47;95787.00;;;17.20
15680;BMP180;15488;48.114;11.532;2024-02-15T03:51:16;95796.00;;;17.10
15680;BMP180;15488;48.114;11.532;2024-02-15T03:53:46;95799.00;;;17.10
15680;BMP180;15488;48.114;11.532;2024-02-15T03:56:15;95802.00;;;17.10
15680;BMP180;15488;48.114;11.532;2024-02-15T03:58:42;95799.00;;;17.10
15680;BMP180;15488;48.114;11.532;2024-02-15T04:01:11;95804.00;;;17.10
15680;BMP180;15488;48.114;11.532;2024-02-15T04:03:41;95797.00;;;17.10
15680;BMP180;15488;48.114;11.532;2024-02-15T04:06:09;95794.00;;;17.20
15680;BMP180;15488;48.114;11.532;2024-02-15T04:08:37;95791.00;;;17.20
15680;BMP180;15488;48.114;11.532;2024-02-15T04:11:07;95793.00;;;17.20
15680;BMP180;15488;48.114;11.532;2024-02-15T04:13:36;95789.00;;;17.20
15680;BMP180;15488;48.114;11.532;2024-02-15T04:16:04;95795.00;;;17.10
15680;BMP180;15488;48.114;11.532;2024-02-15T04:18:31;95798.00;;;17.10
15680;BMP180;15488;48.114;11.532;2024-02-15T04:20:59;95800.00;;;17.10
15680;BMP180;15488;48.114;11.532;2024-02-15T04:23:26;95797.00;;;17.10
15680;BMP180;15488;48.114;11.532;2024-02-15T04:25:55;95799.00;;;17.00
15680;BMP180;15488;48.114;11.532;2024-02-15T04:28:24;95821.00;;;17.00
15680;BMP180;15488;48.114;11.532;2024-02-15T04:30:53;95801.00;;;17.00
15680;BMP180;15488;48.114;11.532;2024-02-15T04:33:21;95804.00;;;17.00
15680;BMP180;15488;48.114;11.532;2024-02-15T04:35:49;95805.00;;;17.00
15680;BMP180;15488;48.114;11.532;2024-02-15T04:38:17;95810.00;;;17.00
15680;BMP180;15488;48.114;11.532;2024-02-15T04:40:45;95809.00;;;16.90
15680;BMP180;15488;48.114;11.532;2024-02-15T04:43:13;95801.00;;;16.90
15680;BMP180;15488;48.114;11.532;2024-02-15T04:45:43;95803.00;;;16.90
15680;BMP180;15488;48.114;11.532;2024-02-15T04:48:12;95804.00;;;16.90
15680;BMP180;15488;48.114;11.532;2024-02-15T04:50:40;95802.00;;;16.90
15680;BMP180;15488;48.114;11.532;2024-02-15T04:53:09;95803.00;;;16.90
15680;BMP180;15488;48.114;11.532;2024-02-15T04:55:37;95807.00;;;16.80
15680;BMP180;15488;48.114;11.532;2024-02-15T04:58:05;95805.00;;;16.80
15680;BMP180;15488;48.114;11.532;2024-02-15T05:00:32;95808.00;;;16.80
15680;BMP180;15488;48.114;11.532;2024-02-15T05:03:01;95804.00;;;16.80
15680;BMP180;15488;48.114;11.532;2024-02-15T05:05:30;95804.00;;;16.80
15680;BMP180;15488;48.114;11.532;2024-02-15T05:07:57;95799.00;;;16.80
15680;BMP180;15488;48.114;11.532;2024-02-15T05:10:27;95803.00;;;16.70
15680;BMP180;15488;48.114;11.532;2024-02-15T05:12:55;95805.00;;;16.70
15680;BMP180;15488;48.114;11.532;2024-02-15T05:15:22;95798.00;;;16.70
15680;BMP180;15488;48.114;11.532;2024-02-15T05:17:51;95796.00;;;16.70
15680;BMP180;15488;48.114;11.532;2024-02-15T05:20:21;95795.00;;;16.70
15680;BMP180;15488;48.114;11.532;2024-02-15T05:22:50;95791.00;;;16.70
15680;BMP180;15488;48.114;11.532;2024-02-15T05:25:19;95791.00;;;16.60
15680;BMP180;15488;48.114;11.532;2024-02-15T05:27:49;95785.00;;;16.60
15680;BMP180;15488;48.114;11.532;2024-02-15T05:30:16;95785.00;;;16.60
15680;BMP180;15488;48.114;11.532;2024-02-15T05:32:44;95785.00;;;16.60
15680;BMP180;15488;48.114;11.532;2024-02-15T05:35:12;95787.00;;;16.50
15680;BMP180;15488;48.114;11.532;2024-02-15T05:37:42;95788.00;;;16.50
15680;BMP180;15488;48.114;11.532;2024-02-15T05:40:11;95795.00;;;16.50
15680;BMP180;15488;48.114;11.532;2024-02-15T05:42:41;95793.00;;;16.50
15680;BMP180;15488;48.114;11.532;2024-02-15T05:45:31;95792.00;;;16.50
15680;BMP180;15488;48.114;11.532;2024-02-15T05:48:05;95793.00;;;16.50
15680;BMP180;15488;48.114;11.532;2024-02-15T05:50:38;95793.00;;;16.40
15680;BMP180;15488;48.114;11.532;2024-02-15T05:53:07;95790.00;;;16.40
15680;BMP180;15488;48.114;11.532;2024-02-15T05:55:35;95790.00;;;16.40
15680;BMP180;15488;48.114;11.532;2024-02-15T05:58:04;95792.00;;;16.40
15680;BMP180;15488;48.114;11.532;2024-02-15T06:00:32;95792.00;;;16.40
15680;BMP180;15488;48.114;11.532;2024-02-15T06:03:00;95785.00;;;16.30
15680;BMP180;15488;48.114;11.532;2024-02-15T06:05:29;95789.00;;;16.30
15680;BMP180;15488;48.114;11.532;2024-02-15T06:07:57;95781.00;;;16.30
15680;BMP180;15488;48.114;11.532;2024-02-15T06:10:26;95783.00;;;16.30
15680;BMP180;15488;48.114;11.532;2024-02-15T06:12:56;95786.00;;;16.30
15680;BMP180;15488;48.114;11.532;2024-02-15T06:15:23;95788.00;;;16.30
15680;BMP180;15488;48.114;11.532;2024-02-15T06:17:51;95786.00;;;16.30
15680;BMP180;15488;48.114;11.532;2024-02-15T06:20:19;95792.00;;;16.20
15680;BMP180;15488;48.114;11.532;2024-02-15T06:22:47;95795.00;;;16.20
15680;BMP180;15488;48.114;11.532;2024-02-15T06:25:15;95798.00;;;16.20
15680;BMP180;15488;48.114;11.532;2024-02-15T06:27:48;95793.00;;;16.20
15680;BMP180;15488;48.114;11.532;2024-02-15T06:30:17;95802.00;;;16.20
15680;BMP180;15488;48.114;11.532;2024-02-15T06:33:02;95797.00;;;16.20
15680;BMP180;15488;48.114;11.532;2024-02-15T06:36:05;95802.00;;;16.10
15680;BMP180;15488;48.114;11.532;2024-02-15T06:38:50;95803.00;;;16.10
15680;BMP180;15488;48.114;11.532;2024-02-15T06:41:35;95824.00;;;16.00
15680;BMP180;15488;48.114;11.532;2024-02-15T06:44:04;95807.00;;;16.00
15680;BMP180;15488;48.114;11.532;2024-02-15T06:46:31;95806.00;;;16.00
15680;BMP180;15488;48.114;11.532;2024-02-15T06:48:59;95814.00;;;16.00
15680;BMP180;15488;48.114;11.532;2024-02-15T06:51:26;95818.00;;;16.00
15680;BMP180;15488;48.114;11.532;2024-02-15T06:53:54;95820.00;;;16.00
15680;BMP180;15488;48.114;11.532;2024-02-15T06:56:22;95822.00;;;16.00
15680;BMP180;15488;48.114;11.532;2024-02-15T06:58:50;95816.00;;;16.00
15680;BMP180;15488;48.114;11.532;2024-02-15T07:01:21;95820.00;;;16.00
15680;BMP180;15488;48.114;11.532;2024-02-15T07:03:51;95814.00;;;16.00
15680;BMP180;15488;48.114;11.532;2024-02-15T07:06:18;95814.00;;;16.00
15680;BMP180;15488;48.114;11.532;2024-02-15T07:08:46;95818.00;;;16.00
15680;BMP180;15488;48.114;11.532;2024-02-15T07:11:16;95815.00;;;16.00
15680;BMP180;15488;48.114;11.532;2024-02-15T07:13:44;95819.00;;;16.00
15680;BMP180;15488;48.114;11.532;2024-02-15T07:16:12;95809.00;;;16.00
15680;BMP180;15488;48.114;11.532;2024-02-15T07:18:42;95819.00;;;16.10
15680;BMP180;15488;48.114;11.532;2024-02-15T07:21:12;95814.00;;;16.10
15680;BMP180;15488;48.114;11.532;2024-02-15T07:23:43;95820.00;;;15.50
15680;BMP180;15488;48.114;11.532;2024-02-15T07:26:10;95822.00;;;16.10
15680;BMP180;15488;48.114;11.532;2024-02-15T07:28:38;95812.00;;;16.10
15680;BMP180;15488;48.114;11.532;2024-02-15T07:31:07;95809.00;;;16.10
15680;BMP180;15488;48.114;11.532;2024-02-15T07:33:34;95806.00;;;16.10
15680;BMP180;15488;48.114;11.532;2024-02-15T07:36:04;95809.00;;;16.10
15680;BMP180;15488;48.114;11.532;2024-02-15T07:38:32;95811.00;;;16.10
15680;BMP180;15488;48.114;11.532;2024-02-15T07:41:00;95812.00;;;16.10
15680;BMP180;15488;48.114;11.532;2024-02-15T07:43:28;95810.00;;;16.20
15680;BMP180;15488;48.114;11.532;2024-02-15T07:45:56;95808.00;;;16.20
15680;BMP180;15488;48.114;11.532;2024-02-15T07:48:23;95807.00;;;16.10
15680;BMP180;15488;48.114;11.532;2024-02-15T07:50:51;95795.00;;;16.20
15680;BMP180;15488;48.114;11.532;2024-02-15T07:53:21;95804.00;;;16.20
15680;BMP180;15488;48.114;11.532;2024-02-15T07:55:49;95805.00;;;16.20
15680;BMP180;15488;48.114;11.532;2024-02-15T07:58:17;95798.00;;;16.20
15680;BMP180;15488;48.114;11.532;2024-02-15T08:00:45;95798.00;;;16.20
15680;BMP180;15488;48.114;11.532;2024-02-15T08:03:13;95798.00;;;16.20
15680;BMP180;15488;48.114;11.532;2024-02-15T08:05:40;95795.00;;;16.20
15680;BMP180;15488;48.114;11.532;2024-02-15T08:08:08;95792.00;;;16.20
15680;BMP180;15488;48.114;11.532;2024-02-15T08:10:37;95795.00;;;16.20
15680;BMP180;15488;48.114;11.532;2024-02-15T08:13:05;95789.00;;;16.30
15680;BMP180;15488;48.114;11.532;2024-02-15T08:15:35;95786.00;;;16.30
15680;BMP180;15488;48.114;11.532;2024-02-15T08:18:03;95785.00;;;16.30
15680;BMP180;15488;48.114;11.532;2024-02-15T08:20:31;95782.00;;;16.30
15680;BMP180;15488;48.114;11.532;2024-02-15T08:23:00;95775.00;;;16.30
15680;BMP180;15488;48.114;11.532;2024-02-15T08:25:28;95777.00;;;16.30
15680;BMP180;15488;48.114;11.532;2024-02-15T08:27:57;95773.00;;;16.30
15680;BMP180;15488;48.114;11.532;2024-02-15T08:30:31;95772.00;;;16.40
15680;BMP180;15488;48.114;11.532;2024-02-15T08:32:59;95769.00;;;16.50
15680;BMP180;15488;48.114;11.532;2024-02-15T08:35:26;95777.00;;;16.50
15680;BMP180;15488;48.114;11.532;2024-02-15T08:37:54;95770.00;;;16.50
15680;BMP180;15488;48.114;11.532;2024-02-15T08:40:22;95771.00;;;16.60
15680;BMP180;15488;48.114;11.532;2024-02-15T08:42:51;95766.00;;;16.60
15680;BMP180;15488;48.114;11.532;2024-02-15T08:45:20;95758.00;;;16.60
15680;BMP180;15488;48.114;11.532;2024-02-15T08:47:49;95770.00;;;16.70
15680;BMP180;15488;48.114;11.532;2024-02-15T08:50:19;95760.00;;;16.70
15680;BMP180;15488;48.114;11.532;2024-02-15T08:52:49;95766.00;;;16.90
15680;BMP180;15488;48.114;11.532;2024-02-15T08:55:19;95759.00;;;16.90
15680;BMP180;15488;48.114;11.532;2024-02-15T08:57:50;95762.00;;;16.90
15680;BMP180;15488;48.114;11.532;2024-02-15T09:00:19;95759.00;;;16.90
15680;BMP180;15488;48.114;11.532;2024-02-15T09:02:47;95760.00;;;17.00
15680;BMP180;15488;48.114;11.532;2024-02-15T09:05:16;95752.00;;;17.00
15680;BMP180;15488;48.114;11.532;2024-02-15T09:07:45;95761.00;;;17.10
15680;BMP180;15488;48.114;11.532;2024-02-15T09:10:15;95757.00;;;17.10
15680;BMP180;15488;48.114;11.532;2024-02-15T09:12:44;95757.00;;;17.20
15680;BMP180;15488;48.114;11.532;2024-02-15T09:15:13;95754.00;;;17.30
15680;BMP180;15488;48.114;11.532;2024-02-15T09:17:43;95751.00;;;17.30
15680;BMP180;15488;48.114;11.532;2024-02-15T09:20:12;95753.00;;;17.40
15680;BMP180;15488;48.114;11.532;2024-02-15T09:22:42;95750.00;;;17.50
15680;BMP180;15488;48.114;11.532;2024-02-15T09:25:10;95748.00;;;17.60
15680;BMP180;15488;48.114;11.532;2024-02-15T09:27:39;95747.00;;;17.50
15680;BMP180;15488;48.114;11.532;2024-02-15T09:30:07;95734.00;;;17.60
15680;BMP180;15488;48.114;11.532;2024-02-15T09:32:36;95743.00;;;17.60
15680;BMP180;15488;48.114;11.532;2024-02-15T09:35:06;95735.00;;;17.60
15680;BMP180;15488;48.114;11.532;2024-02-15T09:37:35;95739.00;;;17.80
15680;BMP180;15488;48.114;11.532;2024-02-15T09:40:03;95739.00;;;17.80
15680;BMP180;15488;48.114;11.532;2024-02-15T09:42:33;95727.00;;;17.90
15680;BMP180;15488;48.114;11.532;2024-02-15T09:45:02;95726.00;;;17.90
15680;BMP180;15488;48.114;11.532;2024-02-15T09:47:33;95722.00;;;17.90
15680;BMP180;15488;48.114;11.532;2024-02-15T09:50:02;95726.00;;;18.10
15680;BMP180;15488;48.114;11.532;2024-02-15T09:52:32;95714.00;;;18.10
15680;BMP180;15488;48.114;11.532;2024-02-15T09:55:03;95707.00;;;18.20
15680;BMP180;15488;48.114;11.532;2024-02-15T09:57:31;95705.00;;;18.30
15680;BMP180;15488;48.114;11.532;2024-02-15T09:59:59;95708.00;;;18.30
15680;BMP180;15488;48.114;11.532;2024-02-15T10:02:29;95705.00;;;18.40
15680;BMP180;15488;48.114;11.532;2024-02-15T10:04:57;95709.00;;;18.40
15680;BMP180;15488;48.114;11.532;2024-02-15T10:07:25;95698.00;;;18.50
15680;BMP180;15488;48.114;11.532;2024-02-15T10:09:54;95702.00;;;18.50
15680;BMP180;15488;48.114;11.532;2024-02-15T10:12:22;95702.00;;;18.60
15680;BMP180;15488;48.114;11.532;2024-02-15T10:14:53;95716.00;;;18.70
15680;BMP180;15488;48.114;11.532;2024-02-15T10:17:21;95702.00;;;18.70
15680;BMP180;15488;48.114;11.532;2024-02-15T10:20:03;95708.00;;;18.90
15680;BMP180;15488;48.114;11.532;2024-02-15T10:22:31;95698.00;;;18.80
15680;BMP180;15488;48.114;11.532;2024-02-15T10:25:13;95695.00;;;18.90
15680;BMP180;15488;48.114;11.532;2024-02-15T10:27:41;95698.00;;;18.90
15680;BMP180;15488;48.114;11.532;2024-02-15T10:30:19;95693.00;;;19.00
15680;BMP180;15488;48.114;11.532;2024-02-15T10:32:47;95691.00;;;19.00
15680;BMP180;15488;48.114;11.532;2024-02-15T10:35:22;95684.00;;;19.10
15680;BMP180;15488;48.114;11.532;2024-02-15T10:37:50;95677.00;;;18.50
15680;BMP180;15488;48.114;11.532;2024-02-15T10:40:20;95668.00;;;19.20
15680;BMP180;15488;48.114;11.532;2024-02-15T10:42:51;95668.00;;;19.30
15680;BMP180;15488;48.114;11.532;2024-02-15T10:45:19;95670.00;;;19.30
15680;BMP180;15488;48.114;11.532;2024-02-15T10:47:47;95668.00;;;19.40
15680;BMP180;15488;48.114;11.532;2024-02-15T10:50:15;95662.00;;;19.40
15680;BMP180;15488;48.114;11.532;2024-02-15T10:52:51;95656.00;;;19.50
15680;BMP180;15488;48.114;11.532;2024-02-15T10:55:32;95651.00;;;19.50
15680;BMP180;15488;48.114;11.532;2024-02-15T10:58:02;95649.00;;;19.60
15680;BMP180;15488;48.114;11.532;2024-02-15T11:00:33;95640.00;;;19.70
15680;BMP180;15488;48.114;11.532;2024-02-15T11:03:04;95643.00;;;19.70
15680;BMP180;15488;48.114;11.532;2024-02-15T11:05:33;95636.00;;;19.80
15680;BMP180;15488;48.114;11.532;2024-02-15T11:08:04;95685.00;;;19.10
15680;BMP180;15488;48.114;11.532;2024-02-15T11:10:35;95626.00;;;19.60
15680;BMP180;15488;48.114;11.532;2024-02-15T11:13:04;95623.00;;;20.00
15680;BMP180;15488;48.114;11.532;2024-02-15T11:15:42;95615.00;;;20.00
15680;BMP180;15488;48.114;11.532;2024-02-15T11:18:12;95605.00;;;20.10
15680;BMP180;15488;48.114;11.532;2024-02-15T11:20:52;95606.00;;;20.10
15680;BMP180;15488;48.114;11.532;2024-02-15T11:23:26;95609.00;;;20.20
15680;BMP180;15488;48.114;11.532;2024-02-15T11:25:56;95631.00;;;20.30
15680;BMP180;15488;48.114;11.532;2024-02-15T11:28:43;95598.00;;;20.40
15680;BMP180;15488;48.114;11.532;2024-02-15T11:34:44;95595.00;;;20.60
15680;BMP180;15488;48.114;11.532;2024-02-15T11:37:50;95586.00;;;20.60
15680;BMP180;15488;48.114;11.532;2024-02-15T11:40:20;95591.00;;;20.70
15680;BMP180;15488;48.114;11.532;2024-02-15T11:42:51;95586.00;;;20.70
15680;BMP180;15488;48.114;11.532;2024-02-15T11:45:20;95580.00;;;20.90
15680;BMP180;15488;48.114;11.532;2024-02-15T11:47:49;95577.00;;;20.50
15680;BMP180;15488;48.114;11.532;2024-02-15T11:50:18;95572.00;;;20.90
15680;BMP180;15488;48.114;11.532;2024-02-15T11:52:47;95563.00;;;21.00
15680;BMP180;15488;48.114;11.532;2024-02-15T11:55:18;95560.00;;;21.10
15680;BMP180;15488;48.114;11.532;2024-02-15T11:57:56;95550.00;;;21.10
15680;BMP180;15488;48.114;11.532;2024-02-15T12:00:29;95559.00;;;21.30
15680;BMP180;15488;48.114;11.532;2024-02-15T12:03:15;95553.00;;;21.30
15680;BMP180;15488;48.114;11.532;2024-02-15T12:06:01;95556.00;;;21.30
15680;BMP180;15488;48.114;11.532;2024-02-15T12:08:46;95555.00;;;21.40
15680;BMP180;15488;48.114;11.532;2024-02-15T12:11:31;95551.00;;;21.40
15680;BMP180;15488;48.114;11.532;2024-02-15T12:14:18;95552.00;;;21.40
15680;BMP180;15488;48.114;11.532;2024-02-15T12:17:05;95553.00;;;21.50
15680;BMP180;15488;48.114;11.532;2024-02-15T12:19:51;95540.00;;;21.50
15680;BMP180;15488;48.114;11.532;2024-02-15T12:22:22;95538.00;;;21.50
15680;BMP180;15488;48.114;11.532;2024-02-15T12:24:55;95535.00;;;21.50
15680;BMP180;15488;48.114;11.532;2024-02-15T12:27:23;95529.00;;;21.50
15680;BMP180;15488;48.114;11.532;2024-02-15T12:29:58;95526.00;;;21.50
15680;BMP180;15488;48.114;11.532;2024-02-15T12:32:26;95528.00;;;21.60
15680;BMP180;15488;48.114;11.532;2024-02-15T12:35:10;95522.00;;;21.60
15680;BMP180;15488;48.114;11.532;2024-02-15T12:37:38;95514.00;;;21.60
15680;BMP180;15488;48.114;11.532;2024-02-15T12:40:13;95514.00;;;21.60
15680;BMP180;15488;48.114;11.532;2024-02-15T12:42:43;95511.00;;;21.60
15680;BMP180;15488;48.114;11.532;2024-02-15T12:45:20;95515.00;;;21.60
15680;BMP180;15488;48.114;11.532;2024-02-15T12:47:49;95514.00;;;21.70
15680;BMP180;15488;48.114;11.532;2024-02-15T12:50:18;95511.00;;;21.70
15680;BMP180;15488;48.114;11.532;2024-02-15T12:52:46;95508.00;;;21.70
15680;BMP180;15488;48.114;11.532;2024-02-15T12:55:16;95502.00;;;21.80
15680;BMP180;15488;48.114;11.532;2024-02-15T12:57:47;95497.00;;;21.90
15680;BMP180;15488;48.114;11.532;2024-02-15T13:00:20;95496.00;;;22.00
15680;BMP180;15488;48.114;11.532;2024-02-15T13:02:48;95491.00;;;22.00
15680;BMP180;15488;48.114;11.532;2024-02-15T13:05:16;95488.00;;;22.10
15680;BMP180;15488;48.114;11.532;2024-02-15T13:07:46;95485.00;;;22.10
15680;BMP180;15488;48.114;11.532;2024-02-15T13:10:13;95481.00;;;22.10
15680;BMP180;15488;48.114;11.532;2024-02-15T13:12:42;95486.00;;;22.20
15680;BMP180;15488;48.114;11.532;2024-02-15T13:15:12;95483.00;;;22.30
15680;BMP180;15488;48.114;11.532;2024-02-15T13:17:44;95477.00;;;21.80
15680;BMP180;15488;48.114;11.532;2024-02-15T13:20:13;95474.00;;;22.30
15680;BMP180;15488;48.114;11.532;2024-02-15T13:22:41;95473.00;;;22.30
15680;BMP180;15488;48.114;11.532;2024-02-15T13:25:10;95472.00;;;22.40
15680;BMP180;15488;48.114;11.532;2024-02-15T13:27:37;95470.00;;;22.40
15680;BMP180;15488;48.114;11.532;2024-02-15T13:30:06;95466.00;;;22.40
15680;BMP180;15488;48.114;11.532;2024-02-15T13:32:36;95462.00;;;22.50
15680;BMP180;15488;48.114;11.532;2024-02-15T13:35:07;95464.00;;;22.50
15680;BMP180;15488;48.114;11.532;2024-02-15T13:37:41;95463.00;;;22.60
15680;BMP180;15488;48.114;11.532;2024-02-15T13:40:10;95466.00;;;22.60
15680;BMP180;15488;48.114;11.532;2024-02-15T13:42:42;95463.00;;;22.60
15680;BMP180;15488;48.114;11.532;2024-02-15T13:45:15;95475.00;;;22.70
15680;BMP180;15488;48.114;11.532;2024-02-15T13:47:45;95466.00;;;22.70
15680;BMP180;15488;48.114;11.532;2024-02-15T13:50:15;95461.00;;;22.80
15680;BMP180;15488;48.114;11.532;2024-02-15T13:52:43;95453.00;;;22.90
15680;BMP180;15488;48.114;11.532;2024-02-15T13:55:12;95451.00;;;23.00
15680;BMP180;15488;48.114;11.532;2024-02-15T13:57:40;95445.00;;;23.10
15680;BMP180;15488;48.114;11.532;2024-02-15T14:00:10;95444.00;;;23.20
15680;BMP180;15488;48.114;11.532;2024-02-15T14:02:48;95449.00;;;23.30
15680;BMP180;15488;48.114;11.532;2024-02-15T14:05:17;95446.00;;;23.50
15680;BMP180;15488;48.114;11.532;2024-02-15T14:07:49;95444.00;;;23.60
15680;BMP180;15488;48.114;11.532;2024-02-15T14:10:18;95442.00;;;23.70
15680;BMP180;15488;48.114;11.532;2024-02-15T14:12:47;95441.00;;;23.70
15680;BMP180;15488;48.114;11.532;2024-02-15T14:15:15;95446.00;;;23.90